createdAt,value
2022-10-29T00:01:06.225Z,14.69
2022-10-29T00:03:40.586Z,13.69
2022-10-29T00:06:12.024Z,14.15
2022-10-29T00:08:41.555Z,14.98
2022-10-29T00:11:13.466Z,15.48
2022-10-29T00:13:42.999Z,15.72
2022-10-29T00:16:10.773Z,15.81
2022-10-29T00:18:40.298Z,15.55
2022-10-29T00:21:11.181Z,14.19
2022-10-29T00:23:39.025Z,13.32
2022-10-29T00:26:07.564Z,14.19
2022-10-29T00:28:36.129Z,15.07
2022-10-29T00:31:19.080Z,15.66
2022-10-29T00:33:47.134Z,16.08
2022-10-29T00:36:24.541Z,16.40
2022-10-29T00:38:52.917Z,16.57
2022-10-29T00:41:27.181Z,16.80
2022-10-29T00:44:29.044Z,16.53
2022-10-29T00:47:10.532Z,14.99
2022-10-29T00:49:39.733Z,14.24
2022-10-29T00:52:09.426Z,15.19
2022-10-29T00:54:42.764Z,15.97
2022-10-29T00:57:20.969Z,16.50
2022-10-29T00:59:50.314Z,16.57
2022-10-29T01:02:18.774Z,16.65
2022-10-29T01:04:47.144Z,16.74
2022-10-29T01:07:15.347Z,16.96
2022-10-29T01:09:43.325Z,17.01
2022-10-29T01:12:35.463Z,17.01
2022-10-29T01:15:06.510Z,17.29
2022-10-29T01:18:09.993Z,17.05
2022-10-29T01:21:08.727Z,15.48
2022-10-29T01:23:50.495Z,14.79
2022-10-29T01:27:00.115Z,15.73
2022-10-29T01:29:34.132Z,16.55
2022-10-29T01:32:11.252Z,16.88
2022-10-29T01:34:43.785Z,16.74
2022-10-29T01:37:21.796Z,15.38
2022-10-29T01:39:58.531Z,14.49
2022-10-29T01:42:37.130Z,15.25
2022-10-29T01:45:32.185Z,16.01
2022-10-29T01:48:04.671Z,16.43
2022-10-29T01:50:34.351Z,16.47
2022-10-29T01:53:05.061Z,16.15
2022-10-29T01:55:37.373Z,14.86
2022-10-29T01:58:07.009Z,13.94
2022-10-29T02:00:50.385Z,14.74
2022-10-29T02:03:30.185Z,15.83
2022-10-29T02:06:52.736Z,16.46
2022-10-29T02:09:30.353Z,17.04
2022-10-29T02:12:05.185Z,16.94
2022-10-29T02:15:04.390Z,15.57
2022-10-29T02:17:33.749Z,14.75
2022-10-29T02:20:11.935Z,15.57
2022-10-29T02:22:39.779Z,16.14
2022-10-29T02:25:08.683Z,16.39
2022-10-29T02:27:37.316Z,16.39
2022-10-29T02:30:06.240Z,16.32
2022-10-29T02:32:34.123Z,16.37
2022-10-29T02:35:02.221Z,16.60
2022-10-29T02:37:30.130Z,16.78
2022-10-29T02:39:58.129Z,16.63
2022-10-29T02:42:26.051Z,15.39
2022-10-29T02:44:53.845Z,14.50
2022-10-29T02:47:21.777Z,15.08
2022-10-29T02:49:49.571Z,15.85
2022-10-29T02:52:17.405Z,16.21
2022-10-29T02:54:45.262Z,16.37
2022-10-29T02:57:13.089Z,16.54
2022-10-29T02:59:40.935Z,16.65
2022-10-29T03:02:08.864Z,16.84
2022-10-29T03:04:39.364Z,17.02
2022-10-29T03:07:07.223Z,16.76
2022-10-29T03:09:35.160Z,15.47
2022-10-29T03:12:03.140Z,14.24
2022-10-29T03:14:31.054Z,14.26
2022-10-29T03:16:58.876Z,15.13
2022-10-29T03:19:26.880Z,15.73
2022-10-29T03:21:54.750Z,16.00
2022-10-29T03:24:22.607Z,15.88
2022-10-29T03:26:50.421Z,14.58
2022-10-29T03:29:18.249Z,13.86
2022-10-29T03:31:46.084Z,14.51
2022-10-29T03:34:13.898Z,14.97
2022-10-29T03:36:41.692Z,15.23
2022-10-29T03:39:09.476Z,15.74
2022-10-29T03:41:37.295Z,16.02
2022-10-29T03:44:05.246Z,16.28
2022-10-29T03:46:34.258Z,16.55
2022-10-29T03:49:02.082Z,16.77
2022-10-29T03:51:29.999Z,16.81
2022-10-29T03:53:57.780Z,16.17
2022-10-29T03:56:25.611Z,14.90
2022-10-29T03:58:53.398Z,14.19
2022-10-29T04:01:21.314Z,14.91
2022-10-29T04:03:49.321Z,15.52
2022-10-29T04:06:18.412Z,15.67
2022-10-29T04:08:46.314Z,15.66
2022-10-29T04:11:14.677Z,15.58
2022-10-29T04:13:42.610Z,15.64
2022-10-29T04:16:10.431Z,15.62
2022-10-29T04:18:38.277Z,15.66
2022-10-29T04:22:51.379Z,15.74
2022-10-29T04:27:21.307Z,15.59
2022-10-29T04:29:33.669Z,16.24
2022-10-29T04:32:01.433Z,16.50
2022-10-29T04:34:29.295Z,16.64
2022-10-29T04:36:57.139Z,16.76
2022-10-29T04:39:25.007Z,16.70
2022-10-29T04:41:52.820Z,16.74
2022-10-29T04:44:22.349Z,16.51
2022-10-29T04:46:50.194Z,16.26
2022-10-29T04:49:18.108Z,16.59
2022-10-29T04:51:46.003Z,16.71
2022-10-29T04:54:13.836Z,16.71
2022-10-29T04:56:41.867Z,16.48
2022-10-29T04:59:34.807Z,16.53
2022-10-29T05:02:02.638Z,16.78
2022-10-29T05:04:30.524Z,17.02
2022-10-29T05:06:58.335Z,16.28
2022-10-29T05:09:26.136Z,15.23
2022-10-29T05:11:53.974Z,15.93
2022-10-29T05:14:21.825Z,16.69
2022-10-29T05:16:49.604Z,17.09
2022-10-29T05:19:17.416Z,17.31
2022-10-29T05:21:45.277Z,17.21
2022-10-29T05:24:13.113Z,15.82
2022-10-29T05:26:40.909Z,15.66
2022-10-29T05:29:08.711Z,16.58
2022-10-29T05:31:36.514Z,16.97
2022-10-29T05:34:04.347Z,17.04
2022-10-29T05:36:32.111Z,17.06
2022-10-29T05:38:59.978Z,16.86
2022-10-29T05:41:27.931Z,16.84
2022-10-29T05:43:55.902Z,16.58
2022-10-29T05:46:23.714Z,17.03
2022-10-29T05:48:51.454Z,17.35
2022-10-29T05:51:19.320Z,16.16
2022-10-29T05:53:47.984Z,15.21
2022-10-29T05:56:16.174Z,15.80
2022-10-29T05:58:43.938Z,16.40
2022-10-29T06:01:12.046Z,16.61
2022-10-29T06:03:40.174Z,16.76
2022-10-29T06:06:08.137Z,17.04
2022-10-29T06:08:36.014Z,17.13
2022-10-29T06:11:04.692Z,17.20
2022-10-29T06:13:32.618Z,17.20
2022-10-29T06:16:00.945Z,17.05
2022-10-29T06:18:29.300Z,16.97
2022-10-29T06:21:00.830Z,17.02
2022-10-29T06:23:29.420Z,17.02
2022-10-29T06:26:01.172Z,17.12
2022-10-29T06:28:33.667Z,17.29
2022-10-29T06:31:03.368Z,17.23
2022-10-29T06:33:31.907Z,17.55
2022-10-29T06:36:01.637Z,17.02
2022-10-29T06:38:29.647Z,15.89
2022-10-29T06:40:57.626Z,16.24
2022-10-29T06:43:25.681Z,16.75
2022-10-29T06:45:53.607Z,16.95
2022-10-29T06:48:22.709Z,17.10
2022-10-29T06:50:51.400Z,17.22
2022-10-29T06:53:19.736Z,17.33
2022-10-29T06:55:47.569Z,17.48
2022-10-29T06:58:17.252Z,17.73
2022-10-29T07:00:46.098Z,16.53
2022-10-29T07:03:15.340Z,15.88
2022-10-29T07:05:43.309Z,16.69
2022-10-29T07:08:12.245Z,17.11
2022-10-29T07:10:40.477Z,17.72
2022-10-29T07:13:09.473Z,18.26
2022-10-29T07:15:37.310Z,18.01
2022-10-29T07:18:07.111Z,16.78
2022-10-29T07:20:37.987Z,16.73
2022-10-29T07:23:06.371Z,17.26
2022-10-29T07:25:36.096Z,17.92
2022-10-29T07:28:12.951Z,18.38
2022-10-29T07:30:41.572Z,17.16
2022-10-29T07:33:09.851Z,16.43
2022-10-29T07:35:38.399Z,17.11
2022-10-29T07:38:10.784Z,17.79
2022-10-29T07:40:40.939Z,18.36
2022-10-29T07:43:09.177Z,18.61
2022-10-29T07:45:37.659Z,18.64
2022-10-29T07:48:07.978Z,18.57
2022-10-29T07:50:37.897Z,18.81
2022-10-29T07:53:07.027Z,17.79
2022-10-29T07:55:35.825Z,17.22
2022-10-29T07:58:06.470Z,17.93
2022-10-29T08:00:37.976Z,18.49
2022-10-29T08:03:07.198Z,18.81
2022-10-29T08:05:35.419Z,18.52
2022-10-29T08:08:04.164Z,17.44
2022-10-29T08:10:33.416Z,18.06
2022-10-29T08:13:03.466Z,18.70
2022-10-29T08:15:33.499Z,18.44
2022-10-29T08:18:04.983Z,17.49
2022-10-29T08:20:32.864Z,17.31
2022-10-29T08:23:01.625Z,18.48
2022-10-29T08:25:30.151Z,19.08
2022-10-29T08:27:59.686Z,18.12
2022-10-29T08:30:28.338Z,17.50
2022-10-29T08:32:56.603Z,18.22
2022-10-29T08:35:24.904Z,19.16
2022-10-29T08:37:52.830Z,18.50
2022-10-29T08:40:23.603Z,17.36
2022-10-29T08:42:54.438Z,17.81
2022-10-29T08:45:30.491Z,18.85
2022-10-29T08:48:06.712Z,19.27
2022-10-29T08:50:41.375Z,18.12
2022-10-29T08:53:23.575Z,18.07
2022-10-29T08:55:51.889Z,19.16
2022-10-29T08:58:45.490Z,19.32
2022-10-29T09:01:13.667Z,18.23
2022-10-29T09:03:41.668Z,17.85
2022-10-29T09:06:31.783Z,18.93
2022-10-29T09:09:11.078Z,19.47
2022-10-29T09:11:39.135Z,18.83
2022-10-29T09:14:31.478Z,17.98
2022-10-29T09:17:19.151Z,17.79
2022-10-29T09:19:49.670Z,19.27
2022-10-29T09:23:03.937Z,19.94
2022-10-29T09:25:44.382Z,18.77
2022-10-29T09:28:59.715Z,17.97
2022-10-29T09:31:37.744Z,18.20
2022-10-29T09:34:18.265Z,19.74
2022-10-29T09:36:48.211Z,19.46
2022-10-29T09:39:31.595Z,18.45
2022-10-29T09:42:10.756Z,17.77
2022-10-29T09:44:48.341Z,18.23
2022-10-29T09:47:19.094Z,19.54
2022-10-29T09:49:49.509Z,19.12
2022-10-29T09:52:24.182Z,18.18
2022-10-29T09:54:54.036Z,18.24
2022-10-29T09:57:29.510Z,19.41
2022-10-29T10:00:01.894Z,19.64
2022-10-29T10:02:49.858Z,19.03
2022-10-29T10:05:25.342Z,18.44
2022-10-29T10:08:06.979Z,17.97
2022-10-29T10:10:39.331Z,18.28
2022-10-29T10:13:17.209Z,19.65
2022-10-29T10:15:59.131Z,19.34
2022-10-29T10:18:30.950Z,18.34
2022-10-29T10:21:01.933Z,17.81
2022-10-29T10:23:53.740Z,18.31
2022-10-29T10:26:32.917Z,20.04
2022-10-29T10:29:06.965Z,20.46
2022-10-29T10:31:34.786Z,19.83
2022-10-29T10:34:16.695Z,19.28
2022-10-29T10:37:05.344Z,18.72
2022-10-29T10:39:39.215Z,18.47
2022-10-29T10:42:15.928Z,19.54
2022-10-29T10:44:53.098Z,20.24
2022-10-29T10:47:34.007Z,19.79
2022-10-29T10:50:32.869Z,19.23
2022-10-29T10:53:15.536Z,18.83
2022-10-29T10:55:57.589Z,18.54
2022-10-29T10:58:39.210Z,18.45
2022-10-29T11:01:25.045Z,18.71
2022-10-29T11:04:19.061Z,19.02
2022-10-29T11:06:50.929Z,19.19
2022-10-29T11:09:40.384Z,19.30
2022-10-29T11:12:44.358Z,19.36
2022-10-29T11:15:15.094Z,19.41
2022-10-29T11:17:57.559Z,19.59
2022-10-29T11:20:35.477Z,19.94
2022-10-29T11:23:34.353Z,20.44
2022-10-29T11:26:13.386Z,20.56
2022-10-29T11:28:55.480Z,20.60
2022-10-29T11:31:36.560Z,20.58
2022-10-29T11:34:04.412Z,20.60
2022-10-29T11:36:43.446Z,20.64
2022-10-29T11:39:39.266Z,20.71
2022-10-29T11:42:10.011Z,20.72
2022-10-29T11:44:40.237Z,20.79
2022-10-29T11:47:38.057Z,20.64
2022-10-29T11:50:31.022Z,20.42
2022-10-29T11:53:06.478Z,20.17
2022-10-29T11:55:43.149Z,20.08
2022-10-29T11:58:37.996Z,19.99
2022-10-29T12:01:36.401Z,20.02
2022-10-29T12:04:14.929Z,20.11
2022-10-29T12:06:55.050Z,20.26
2022-10-29T12:09:57.754Z,20.29
2022-10-29T12:12:28.707Z,20.37
2022-10-29T12:15:09.184Z,20.39
2022-10-29T12:18:02.602Z,20.62
2022-10-29T12:20:51.161Z,20.70
2022-10-29T12:23:28.075Z,20.78
2022-10-29T12:26:00.739Z,20.67
2022-10-29T12:28:59.502Z,20.50
2022-10-29T12:31:31.782Z,20.40
2022-10-29T12:34:05.771Z,20.25
2022-10-29T12:36:39.944Z,20.05
2022-10-29T12:39:14.312Z,19.87
2022-10-29T12:41:51.640Z,19.81
2022-10-29T12:44:29.807Z,19.75
2022-10-29T12:47:29.998Z,19.74
2022-10-29T12:50:16.169Z,19.83
2022-10-29T12:52:50.098Z,19.93
2022-10-29T12:55:19.419Z,20.02
2022-10-29T12:57:47.485Z,20.20
2022-10-29T13:00:24.379Z,20.31
2022-10-29T13:02:54.050Z,20.32
2022-10-29T13:05:34.179Z,20.23
2022-10-29T13:08:02.101Z,20.36
2022-10-29T13:10:33.055Z,20.43
2022-10-29T13:13:19.635Z,20.43
2022-10-29T13:15:56.647Z,20.52
2022-10-29T13:18:48.876Z,20.56
2022-10-29T13:21:55.009Z,20.45
2022-10-29T13:24:23.713Z,20.46
2022-10-29T13:26:57.892Z,20.48
2022-10-29T13:29:51.404Z,20.46
2022-10-29T13:32:36.764Z,20.22
2022-10-29T13:35:18.070Z,20.08
2022-10-29T13:38:14.023Z,19.93
2022-10-29T13:41:12.015Z,19.82
2022-10-29T13:43:43.093Z,19.85
2022-10-29T13:46:13.736Z,19.90
2022-10-29T13:48:43.890Z,19.98
2022-10-29T13:51:19.630Z,20.06
2022-10-29T13:53:56.019Z,20.19
2022-10-29T13:56:49.140Z,20.35
2022-10-29T13:59:23.327Z,20.39
2022-10-29T14:02:01.366Z,20.35
2022-10-29T14:04:38.919Z,20.19
2022-10-29T14:07:14.844Z,20.01
2022-10-29T14:09:45.932Z,19.75
2022-10-29T14:12:20.696Z,19.51
2022-10-29T14:15:04.111Z,19.33
2022-10-29T14:17:32.106Z,19.11
2022-10-29T14:20:20.972Z,18.95
2022-10-29T14:22:48.775Z,18.80
2022-10-29T14:25:30.313Z,18.64
2022-10-29T14:28:32.717Z,18.97
2022-10-29T14:31:28.512Z,20.69
2022-10-29T14:34:27.381Z,20.85
2022-10-29T14:37:11.933Z,19.99
2022-10-29T14:40:05.229Z,19.30
2022-10-29T14:42:43.308Z,18.82
2022-10-29T14:45:32.013Z,18.44
2022-10-29T14:48:10.760Z,18.78
2022-10-29T14:50:45.635Z,20.36
2022-10-29T14:53:40.832Z,21.01
2022-10-29T14:56:11.977Z,19.92
2022-10-29T14:58:41.620Z,19.11
2022-10-29T15:01:20.956Z,18.50
2022-10-29T15:04:02.947Z,19.18
2022-10-29T15:06:31.032Z,20.63
2022-10-29T15:09:04.360Z,20.89
2022-10-29T15:12:08.947Z,19.87
2022-10-29T15:14:52.913Z,18.77
2022-10-29T15:17:27.551Z,18.65
2022-10-29T15:19:59.424Z,20.01
2022-10-29T15:22:40.703Z,20.72
2022-10-29T15:25:23.422Z,19.77
2022-10-29T15:27:53.287Z,18.66
2022-10-29T15:30:28.392Z,18.36
2022-10-29T15:33:01.540Z,19.53
2022-10-29T15:35:30.106Z,20.48
2022-10-29T15:37:58.029Z,20.73
2022-10-29T15:40:26.189Z,19.77
2022-10-29T15:42:55.051Z,18.52
2022-10-29T15:45:28.431Z,18.07
2022-10-29T15:48:17.858Z,19.34
2022-10-29T15:50:46.237Z,20.42
2022-10-29T15:53:16.408Z,20.20
2022-10-29T15:55:44.828Z,18.88
2022-10-29T15:58:16.118Z,17.85
2022-10-29T16:00:44.467Z,18.37
2022-10-29T16:03:16.920Z,19.45
2022-10-29T16:05:48.856Z,19.71
2022-10-29T16:08:29.968Z,18.61
2022-10-29T16:11:00.127Z,17.41
2022-10-29T16:13:30.452Z,17.04
2022-10-29T16:15:58.358Z,18.05
2022-10-29T16:18:26.840Z,19.00
2022-10-29T16:21:01.116Z,19.53
2022-10-29T16:23:28.950Z,19.45
2022-10-29T16:25:56.826Z,18.24
2022-10-29T16:28:24.728Z,17.52
2022-10-29T16:30:55.848Z,18.46
2022-10-29T16:33:23.777Z,19.27
2022-10-29T16:35:51.630Z,18.96
2022-10-29T16:38:19.431Z,17.77
2022-10-29T16:40:47.364Z,17.25
2022-10-29T16:43:15.187Z,18.52
2022-10-29T16:45:43.021Z,19.44
2022-10-29T16:48:10.923Z,19.38
2022-10-29T16:50:38.813Z,18.24
2022-10-29T16:53:10.601Z,17.15
2022-10-29T16:55:40.552Z,17.57
2022-10-29T16:58:15.149Z,18.34
2022-10-29T17:00:43.245Z,19.06
2022-10-29T17:03:13.408Z,19.09
2022-10-29T17:05:43.913Z,18.02
2022-10-29T17:08:12.897Z,17.41
2022-10-29T17:10:41.101Z,18.06
2022-10-29T17:13:11.358Z,18.76
2022-10-29T17:15:42.390Z,19.27
2022-10-29T17:18:10.949Z,18.26
2022-10-29T17:20:38.788Z,17.32
2022-10-29T17:23:07.150Z,17.77
2022-10-29T17:25:35.043Z,18.64
2022-10-29T17:28:02.862Z,18.65
2022-10-29T17:30:30.730Z,19.04
2022-10-29T17:32:58.788Z,18.64
2022-10-29T17:35:27.040Z,17.43
2022-10-29T17:37:54.924Z,17.39
2022-10-29T17:40:24.239Z,17.93
2022-10-29T17:42:52.156Z,18.46
2022-10-29T17:45:22.743Z,18.85
2022-10-29T17:47:58.106Z,18.87
2022-10-29T17:50:26.548Z,17.46
2022-10-29T17:52:55.146Z,17.25
2022-10-29T17:55:23.010Z,18.17
2022-10-29T17:57:50.981Z,18.70
2022-10-29T18:00:19.339Z,19.12
2022-10-29T18:02:51.308Z,19.10
2022-10-29T18:05:19.553Z,17.75
2022-10-29T18:07:47.510Z,17.06
2022-10-29T18:10:16.941Z,17.85
2022-10-29T18:12:44.842Z,18.45
2022-10-29T18:15:12.716Z,18.91
2022-10-29T18:17:40.938Z,19.22
2022-10-29T18:20:09.839Z,18.46
2022-10-29T18:22:37.888Z,17.14
2022-10-29T18:25:06.077Z,17.02
2022-10-29T18:27:34.025Z,17.91
2022-10-29T18:30:02.206Z,18.26
2022-10-29T18:32:30.045Z,18.40
2022-10-29T18:34:58.020Z,18.69
2022-10-29T18:37:25.920Z,18.89
2022-10-29T18:39:56.365Z,18.68
2022-10-29T18:42:24.231Z,17.44
2022-10-29T18:44:52.079Z,16.57
2022-10-29T18:47:19.906Z,17.25
2022-10-29T18:49:47.781Z,17.96
2022-10-29T18:52:15.686Z,18.17
2022-10-29T18:54:43.560Z,18.47
2022-10-29T18:57:15.350Z,18.55
2022-10-29T18:59:46.398Z,18.55
2022-10-29T19:02:14.340Z,18.64
2022-10-29T19:04:42.265Z,17.96
2022-10-29T19:07:10.112Z,16.91
2022-10-29T19:09:38.112Z,17.40
2022-10-29T19:12:06.258Z,17.95
2022-10-29T19:14:34.097Z,18.18
2022-10-29T19:17:02.008Z,18.49
2022-10-29T19:19:29.892Z,18.88
2022-10-29T19:21:57.770Z,18.21
2022-10-29T19:24:25.646Z,16.99
2022-10-29T19:26:54.188Z,16.23
2022-10-29T19:29:22.295Z,17.10
2022-10-29T19:31:50.169Z,17.86
2022-10-29T19:34:18.136Z,18.21
2022-10-29T19:36:46.008Z,18.10
2022-10-29T19:39:14.279Z,18.21
2022-10-29T19:41:42.205Z,18.53
2022-10-29T19:44:10.124Z,18.64
2022-10-29T19:46:38.075Z,18.89
2022-10-29T19:49:05.948Z,18.07
2022-10-29T19:51:33.763Z,16.82
2022-10-29T19:54:04.095Z,16.22
2022-10-29T19:56:33.086Z,17.27
2022-10-29T19:59:01.015Z,18.10
2022-10-29T20:01:29.054Z,18.60
2022-10-29T20:03:58.307Z,18.90
2022-10-29T20:06:26.276Z,18.77
2022-10-29T20:08:54.197Z,18.63
2022-10-29T20:11:22.027Z,18.79
2022-10-29T20:13:50.753Z,18.69
2022-10-29T20:16:20.557Z,17.43
2022-10-29T20:18:50.401Z,16.94
2022-10-29T20:21:18.276Z,17.93
2022-10-29T20:23:46.394Z,18.67
2022-10-29T20:26:14.325Z,18.89
2022-10-29T20:28:42.200Z,18.90
2022-10-29T20:31:27.810Z,18.96
2022-10-29T20:33:59.533Z,17.34
2022-10-29T20:36:30.728Z,16.68
2022-10-29T20:38:58.996Z,17.28
2022-10-29T20:41:28.331Z,18.01
2022-10-29T20:44:01.445Z,18.36
2022-10-29T20:46:29.811Z,18.64
2022-10-29T20:48:57.800Z,18.53
2022-10-29T20:51:26.562Z,18.56
2022-10-29T20:53:55.182Z,18.94
2022-10-29T20:56:26.334Z,18.88
2022-10-29T20:58:55.167Z,17.41
2022-10-29T21:01:24.803Z,16.70
2022-10-29T21:03:53.042Z,17.63
2022-10-29T21:06:21.535Z,18.24
2022-10-29T21:08:51.343Z,18.54
2022-10-29T21:11:20.959Z,18.75
2022-10-29T21:13:49.547Z,18.94
2022-10-29T21:16:28.084Z,18.87
2022-10-29T21:18:58.753Z,17.50
2022-10-29T21:21:29.048Z,16.79
2022-10-29T21:23:57.780Z,17.73
2022-10-29T21:26:27.966Z,18.45
2022-10-29T21:28:56.865Z,18.83
2022-10-29T21:31:24.885Z,19.02
2022-10-29T21:33:55.209Z,19.07
2022-10-29T21:36:23.694Z,19.31
2022-10-29T21:38:51.848Z,18.43
2022-10-29T21:41:19.737Z,17.19
2022-10-29T21:43:47.633Z,16.58
2022-10-29T21:46:15.517Z,17.41
2022-10-29T21:48:43.372Z,18.26
2022-10-29T21:51:13.879Z,18.58
2022-10-29T21:53:41.799Z,18.95
2022-10-29T21:56:12.865Z,19.26
2022-10-29T21:58:41.381Z,18.37
2022-10-29T22:01:13.893Z,17.04
2022-10-29T22:03:43.944Z,16.52
2022-10-29T22:06:15.340Z,17.64
2022-10-29T22:08:44.669Z,18.56
2022-10-29T22:11:13.975Z,19.07
2022-10-29T22:13:44.454Z,19.39
2022-10-29T22:16:12.677Z,19.24
2022-10-29T22:18:40.828Z,18.03
2022-10-29T22:21:14.660Z,16.93
2022-10-29T22:23:52.148Z,16.51
2022-10-29T22:26:26.173Z,17.53
2022-10-29T22:28:54.248Z,17.95
2022-10-29T22:31:23.967Z,18.45
2022-10-29T22:33:52.087Z,18.75
2022-10-29T22:36:22.799Z,18.86
2022-10-29T22:38:59.505Z,19.01
2022-10-29T22:41:29.050Z,18.59
2022-10-29T22:44:01.073Z,17.15
2022-10-29T22:46:30.229Z,16.49
2022-10-29T22:48:58.479Z,17.36
2022-10-29T22:51:28.423Z,17.94
2022-10-29T22:53:56.511Z,18.33
2022-10-29T22:56:30.836Z,18.61
2022-10-29T22:58:59.793Z,18.70
2022-10-29T23:01:31.169Z,18.89
2022-10-29T23:03:59.533Z,18.54
2022-10-29T23:06:29.453Z,17.23
2022-10-29T23:08:58.719Z,16.51
2022-10-29T23:11:28.801Z,17.33
2022-10-29T23:13:58.997Z,17.75
2022-10-29T23:16:29.115Z,18.07
2022-10-29T23:18:59.734Z,18.55
2022-10-29T23:21:28.773Z,18.73
2022-10-29T23:23:57.219Z,18.56
2022-10-29T23:26:26.267Z,18.67
2022-10-29T23:28:54.095Z,18.79
2022-10-29T23:31:27.976Z,18.93
2022-10-29T23:33:57.826Z,18.62
2022-10-29T23:36:27.821Z,17.33
2022-10-29T23:38:56.666Z,16.45
2022-10-29T23:41:25.688Z,17.10
2022-10-29T23:43:54.021Z,17.75
2022-10-29T23:46:21.969Z,18.06
2022-10-29T23:48:50.117Z,18.19
2022-10-29T23:51:18.194Z,18.37
2022-10-29T23:53:46.096Z,18.37
2022-10-29T23:56:13.913Z,18.55
2022-10-29T23:58:41.720Z,18.66
